createdAt,value
2022-07-28T04:46:26.548Z,18.20
2022-07-28T04:46:58.372Z,18.10
2022-07-28T04:47:30.276Z,18.10
2022-07-28T04:48:02.278Z,17.10
2022-07-28T04:48:34.185Z,18.00
2022-07-28T04:49:06.299Z,18.00
2022-07-28T04:49:38.692Z,18.00
2022-07-28T04:50:15.074Z,18.00
2022-07-28T04:50:47.026Z,17.80
2022-07-28T04:51:18.865Z,17.90
2022-07-28T04:51:52.377Z,17.90
2022-07-28T04:52:25.565Z,17.90
2022-07-28T04:52:57.576Z,17.90
2022-07-28T04:53:30.539Z,17.80
2022-07-28T04:54:02.347Z,17.90
2022-07-28T04:54:35.281Z,17.90
2022-07-28T04:55:08.064Z,17.90
2022-07-28T04:55:39.982Z,17.90
2022-07-28T04:56:11.781Z,17.90
2022-07-28T04:56:44.688Z,17.90
2022-07-28T04:57:16.919Z,17.90
2022-07-28T04:57:49.618Z,17.90
2022-07-28T04:58:22.644Z,17.90
2022-07-28T04:58:55.122Z,17.90
2022-07-28T04:59:27.495Z,17.90
2022-07-28T05:00:00.855Z,17.90
2022-07-28T05:00:32.835Z,19.20
2022-07-28T05:01:04.924Z,17.90
2022-07-28T05:01:39.209Z,17.90
2022-07-28T05:02:11.367Z,17.90
2022-07-28T05:02:44.921Z,17.80
2022-07-28T05:03:16.830Z,17.90
2022-07-28T05:03:48.657Z,17.90
2022-07-28T05:04:20.528Z,17.90
2022-07-28T05:04:52.773Z,17.90
2022-07-28T05:05:25.783Z,17.90
2022-07-28T05:05:57.992Z,17.90
2022-07-28T05:06:30.310Z,17.90
2022-07-28T05:07:02.158Z,17.80
2022-07-28T05:07:44.241Z,17.90
2022-07-28T05:08:16.101Z,17.80
2022-07-28T05:08:49.562Z,17.90
2022-07-28T05:09:21.442Z,17.80
2022-07-28T05:09:53.247Z,17.80
2022-07-28T05:10:25.143Z,17.80
2022-07-28T05:10:56.994Z,17.80
2022-07-28T05:11:28.820Z,17.80
2022-07-28T05:12:00.643Z,17.70
2022-07-28T05:12:32.602Z,17.80
2022-07-28T05:13:06.197Z,17.80
2022-07-28T05:13:37.960Z,17.80
2022-07-28T05:14:12.633Z,17.80
2022-07-28T05:14:45.200Z,17.80
2022-07-28T05:15:17.040Z,17.80
2022-07-28T05:15:48.856Z,17.80
2022-07-28T05:16:20.718Z,17.80
2022-07-28T05:16:52.629Z,17.80
2022-07-28T05:17:25.614Z,17.90
2022-07-28T05:17:57.433Z,17.80
2022-07-28T05:18:29.818Z,19.60
2022-07-28T05:19:01.851Z,17.80
2022-07-28T05:19:33.634Z,17.80
2022-07-28T05:20:08.303Z,17.80
2022-07-28T05:20:40.057Z,18.40
2022-07-28T05:21:11.968Z,17.80
2022-07-28T05:21:46.569Z,17.90
2022-07-28T05:22:18.382Z,17.80
2022-07-28T05:22:57.456Z,17.80
2022-07-28T05:23:29.551Z,17.80
2022-07-28T05:24:01.359Z,17.90
2022-07-28T05:24:33.180Z,17.80
2022-07-28T05:25:12.320Z,17.80
2022-07-28T05:25:44.133Z,17.80
2022-07-28T05:26:16.540Z,17.80
2022-07-28T05:26:48.375Z,17.80
2022-07-28T05:27:20.217Z,17.80
2022-07-28T05:27:53.247Z,17.80
2022-07-28T05:28:25.351Z,17.80
2022-07-28T05:28:57.154Z,17.80
2022-07-28T05:29:41.856Z,17.80
2022-07-28T05:30:20.390Z,17.80
2022-07-28T05:30:52.250Z,17.80
2022-07-28T05:31:24.328Z,17.80
2022-07-28T05:31:56.348Z,17.70
2022-07-28T05:32:28.276Z,17.70
2022-07-28T05:33:01.764Z,17.80
2022-07-28T05:33:34.389Z,17.80
2022-07-28T05:34:06.185Z,17.80
2022-07-28T05:34:38.070Z,17.80
2022-07-28T05:35:10.074Z,17.80
2022-07-28T05:35:42.020Z,17.80
2022-07-28T05:36:13.791Z,17.80
2022-07-28T05:36:45.575Z,17.70
2022-07-28T05:37:17.378Z,17.80
2022-07-28T05:37:49.190Z,17.70
2022-07-28T05:38:21.930Z,17.70
2022-07-28T05:38:53.719Z,17.60
2022-07-28T05:39:25.487Z,17.70
2022-07-28T05:39:57.274Z,17.70
2022-07-28T05:40:30.001Z,17.70
2022-07-28T05:41:01.817Z,17.70
2022-07-28T05:41:33.800Z,17.70
2022-07-28T05:42:06.257Z,17.70
2022-07-28T05:42:38.193Z,17.70
2022-07-28T05:43:10.034Z,17.70
2022-07-28T05:43:41.801Z,17.70
2022-07-28T05:44:13.967Z,17.80
2022-07-28T05:44:45.892Z,17.70
2022-07-28T05:45:18.002Z,17.70
2022-07-28T05:45:50.147Z,17.70
2022-07-28T05:46:22.037Z,17.80
2022-07-28T05:46:53.854Z,17.70
2022-07-28T05:47:25.668Z,17.70
2022-07-28T05:47:57.442Z,17.70
2022-07-28T05:48:29.263Z,17.70
2022-07-28T05:49:01.410Z,17.70
2022-07-28T05:49:33.818Z,17.70
2022-07-28T07:22:47.015Z,18.60
2022-07-28T07:23:18.834Z,18.60
2022-07-28T07:23:50.594Z,18.60
2022-07-28T07:24:22.488Z,18.60
2022-07-28T07:24:57.060Z,18.60
2022-07-28T07:25:29.701Z,18.50
2022-07-28T07:26:02.792Z,18.50
2022-07-28T07:26:38.121Z,18.50
2022-07-28T07:27:14.907Z,18.50
2022-07-28T07:27:50.828Z,18.50
2022-07-28T07:28:26.324Z,18.50
2022-07-28T07:29:02.116Z,18.50
2022-07-28T07:29:39.395Z,18.50
2022-07-28T07:30:14.722Z,18.50
2022-07-28T07:30:49.014Z,18.50
2022-07-28T07:31:22.750Z,18.50
2022-07-28T07:42:07.244Z,18.60
2022-07-28T07:42:39.018Z,18.60
2022-07-28T07:43:10.948Z,18.60
2022-07-28T07:43:47.335Z,18.60
2022-07-28T07:44:19.555Z,18.60
2022-07-28T07:44:51.450Z,18.70
2022-07-28T07:45:23.405Z,18.60
2022-07-28T07:45:55.286Z,18.70
2022-07-28T07:46:27.170Z,18.60
2022-07-28T07:46:59.038Z,21.20
2022-07-28T07:47:31.202Z,18.60
2022-07-28T07:48:06.168Z,18.70
2022-07-28T07:48:38.586Z,18.70
2022-07-28T07:49:13.735Z,18.70
2022-07-28T07:49:46.960Z,18.70
2022-07-28T07:50:21.459Z,18.70
2022-07-28T07:50:56.712Z,18.70
2022-07-28T07:51:32.536Z,18.70
2022-07-28T07:52:09.019Z,18.70
2022-07-28T07:52:44.650Z,18.70
2022-07-28T07:53:17.256Z,18.70
2022-07-28T07:53:49.602Z,18.70
2022-07-28T07:54:26.327Z,18.70
2022-07-28T07:55:04.726Z,18.70
2022-07-28T07:55:38.017Z,18.80
2022-07-28T07:56:10.075Z,18.80
2022-07-28T07:56:45.759Z,18.80
2022-07-28T07:57:20.511Z,16.40
2022-07-28T07:57:56.091Z,18.80
2022-07-28T07:58:33.336Z,18.80
2022-07-28T07:59:11.017Z,18.80
2022-07-28T07:59:44.834Z,18.90
2022-07-28T08:00:30.545Z,18.80
2022-07-28T08:01:06.498Z,18.80
2022-07-28T08:01:41.355Z,18.80
2022-07-28T08:02:18.917Z,18.80
2022-07-28T08:03:01.459Z,18.90
2022-07-28T08:03:36.333Z,18.90
2022-07-28T08:04:12.364Z,18.90
2022-07-28T08:04:51.068Z,18.90
2022-07-28T08:05:34.776Z,18.90
2022-07-28T08:06:08.798Z,18.90
2022-07-28T08:06:41.926Z,18.90
2022-07-28T08:07:14.371Z,18.90
2022-07-28T08:07:46.285Z,18.90
2022-07-28T08:08:18.046Z,18.90
2022-07-28T08:08:49.850Z,19.10
2022-07-28T08:09:21.698Z,19.00
2022-07-28T08:09:53.577Z,19.00
2022-07-28T08:10:25.538Z,19.00
2022-07-28T08:10:57.365Z,19.00
2022-07-28T08:11:29.142Z,19.00
2022-07-28T08:12:00.958Z,19.00
2022-07-28T08:12:33.382Z,19.00
2022-07-28T08:13:07.418Z,19.00
2022-07-28T08:13:39.235Z,19.00
2022-07-28T08:14:11.547Z,19.00
2022-07-28T08:14:43.545Z,19.00
2022-07-28T08:15:19.758Z,19.00
2022-07-28T08:15:51.702Z,19.00
2022-07-28T08:16:23.577Z,19.00
2022-07-28T08:16:59.410Z,19.10
2022-07-28T08:17:31.369Z,19.10
2022-07-28T08:18:04.253Z,19.10
2022-07-28T08:18:36.203Z,19.10
2022-07-28T08:19:07.986Z,19.10
2022-07-28T08:19:40.758Z,19.10
2022-07-28T08:20:12.711Z,19.10
2022-07-28T08:20:44.583Z,19.10
2022-07-28T08:21:17.676Z,19.10
2022-07-28T08:21:49.454Z,19.10
2022-07-28T08:22:21.407Z,19.10
2022-07-28T08:22:55.504Z,19.10
2022-07-28T08:23:27.406Z,19.10
2022-07-28T08:23:59.552Z,19.10
2022-07-28T08:24:33.561Z,19.20
2022-07-28T08:25:06.763Z,19.20
2022-07-28T08:25:39.421Z,19.20
2022-07-28T08:26:12.383Z,19.20
2022-07-28T08:26:44.196Z,19.20
2022-07-28T08:27:16.022Z,19.20
2022-07-28T08:27:48.028Z,19.20
2022-07-28T08:28:19.826Z,19.20
2022-07-28T08:28:52.461Z,19.10
2022-07-28T08:29:24.278Z,19.20
2022-07-28T08:29:56.081Z,19.20
2022-07-28T08:30:32.388Z,19.20
2022-07-28T08:31:04.934Z,19.20
2022-07-28T08:31:36.906Z,19.20
2022-07-28T08:32:08.899Z,19.20
2022-07-28T08:32:42.252Z,19.20
2022-07-28T08:33:14.126Z,19.30
2022-07-28T08:33:53.427Z,19.30
2022-07-28T08:34:31.539Z,19.30
2022-07-28T08:35:31.846Z,19.30
2022-07-28T08:35:58.436Z,19.30
2022-07-28T08:36:32.046Z,19.30
2022-07-28T08:37:05.450Z,19.30
2022-07-28T08:37:40.843Z,19.30
2022-07-28T08:38:12.813Z,19.30
2022-07-28T08:38:44.712Z,19.30
2022-07-28T08:39:16.561Z,22.30
2022-07-28T08:39:48.357Z,19.40
2022-07-28T08:40:23.437Z,19.40
2022-07-28T08:41:01.291Z,19.40
2022-07-28T08:41:46.890Z,19.40
2022-07-28T08:42:27.768Z,19.40
2022-07-28T08:43:05.581Z,19.40
2022-07-28T08:43:42.717Z,19.40
2022-07-28T08:44:17.712Z,19.40
2022-07-28T08:45:02.465Z,19.40
2022-07-28T08:45:37.253Z,19.40
2022-07-28T08:46:09.584Z,19.40
2022-07-28T08:46:44.178Z,19.40
2022-07-28T08:47:16.852Z,19.40
2022-07-28T08:48:07.626Z,19.60
2022-07-28T08:48:40.081Z,19.50
2022-07-28T08:49:15.542Z,19.40
2022-07-28T08:49:49.236Z,19.50
2022-07-28T08:50:24.238Z,19.50
2022-07-28T08:51:00.428Z,19.50
2022-07-28T08:51:33.503Z,19.50
2022-07-28T08:52:06.397Z,19.50
2022-07-28T08:52:40.151Z,19.50
2022-07-28T08:53:15.050Z,19.50
2022-07-28T08:53:48.678Z,19.50
2022-07-28T08:54:26.023Z,19.60
2022-07-28T08:55:01.914Z,19.50
2022-07-28T08:55:35.724Z,19.50
2022-07-28T08:56:13.511Z,19.50
2022-07-28T08:56:48.211Z,19.60
2022-07-28T08:57:30.678Z,19.60
2022-07-28T08:58:03.656Z,19.60
2022-07-28T08:58:37.184Z,19.60
2022-07-28T08:59:09.046Z,19.60
2022-07-28T08:59:41.226Z,19.60
2022-07-28T09:00:13.387Z,19.60
2022-07-28T09:00:47.009Z,19.60
2022-07-28T09:01:19.033Z,19.60
2022-07-28T09:01:57.291Z,19.60
2022-07-28T09:02:31.349Z,19.60
2022-07-28T09:03:04.601Z,19.70
2022-07-28T09:03:39.063Z,19.70
2022-07-28T09:04:12.505Z,19.70
2022-07-28T09:04:46.222Z,19.70
2022-07-28T09:05:20.918Z,19.10
2022-07-28T09:05:53.907Z,19.70
2022-07-28T09:06:26.301Z,19.70
2022-07-28T09:06:58.445Z,19.80
2022-07-28T09:07:32.012Z,19.80
2022-07-28T09:08:04.271Z,19.70
2022-07-28T09:08:36.532Z,19.80
2022-07-28T09:09:09.843Z,19.80
2022-07-28T09:09:42.277Z,19.80
2022-07-28T09:10:14.095Z,19.80
2022-07-28T09:10:47.438Z,19.80
2022-07-28T09:11:19.316Z,19.80
2022-07-28T09:11:51.180Z,19.80
2022-07-28T09:12:27.237Z,19.80
2022-07-28T09:12:59.532Z,19.90
2022-07-28T09:13:31.292Z,19.80
2022-07-28T09:14:03.219Z,19.90
2022-07-28T09:14:35.407Z,19.90
2022-07-28T09:15:09.877Z,19.80
2022-07-28T09:15:42.092Z,19.90
2022-07-28T09:16:15.258Z,19.90
2022-07-28T09:16:47.083Z,20.00
2022-07-28T09:17:19.073Z,17.80
2022-07-28T09:17:50.903Z,19.90
2022-07-28T09:18:23.080Z,19.90
2022-07-28T09:18:54.942Z,20.00
2022-07-28T09:19:26.710Z,19.90
2022-07-28T09:20:10.818Z,19.40
2022-07-28T09:20:44.121Z,20.00
2022-07-28T09:21:17.633Z,20.00
2022-07-28T09:21:49.821Z,20.00
2022-07-28T09:22:21.671Z,20.10
2022-07-28T09:22:57.239Z,20.10
2022-07-28T09:23:46.159Z,20.10
2022-07-28T09:24:33.498Z,21.70
2022-07-28T09:25:18.701Z,20.10
2022-07-28T09:25:50.547Z,20.10
2022-07-28T09:26:22.398Z,20.10
2022-07-28T09:27:01.487Z,20.10
2022-07-28T09:27:44.573Z,20.10
2022-07-28T09:28:20.186Z,20.20
2022-07-28T09:28:57.245Z,20.20
2022-07-28T09:29:29.860Z,20.30
2022-07-28T09:30:01.730Z,20.20
2022-07-28T09:30:36.866Z,20.20
2022-07-28T09:31:09.332Z,20.20
2022-07-28T09:31:56.936Z,20.20
2022-07-28T09:32:28.992Z,20.30
2022-07-28T09:33:42.502Z,20.30
2022-07-28T09:34:17.973Z,20.30
2022-07-28T09:34:51.879Z,20.30
2022-07-28T09:35:23.972Z,20.30
2022-07-28T09:35:57.849Z,20.30
2022-07-28T09:36:38.640Z,20.30
2022-07-28T09:37:23.448Z,20.40
2022-07-28T09:38:00.364Z,20.40
2022-07-28T09:38:40.823Z,20.40
2022-07-28T09:39:38.041Z,20.40
2022-07-28T09:40:12.026Z,20.40
2022-07-28T09:41:04.162Z,20.40
2022-07-28T09:41:53.075Z,20.40
2022-07-28T09:42:25.810Z,20.50
2022-07-28T09:42:58.208Z,20.50
2022-07-28T09:43:42.235Z,20.40
2022-07-28T09:44:21.267Z,20.50
2022-07-28T09:45:25.489Z,20.50
2022-07-28T09:46:09.492Z,20.50
2022-07-28T09:46:41.634Z,20.50
2022-07-28T09:47:25.221Z,20.60
2022-07-28T09:48:11.397Z,20.60
2022-07-28T09:48:49.418Z,20.60
2022-07-28T09:49:28.135Z,20.60
2022-07-28T09:50:01.476Z,20.60
2022-07-28T09:50:33.407Z,20.60
2022-07-28T09:51:13.554Z,20.70
2022-07-28T09:52:01.202Z,20.70
2022-07-28T09:52:38.509Z,20.70
2022-07-28T09:53:24.486Z,20.70
2022-07-28T09:54:08.612Z,20.70
2022-07-28T09:54:59.981Z,20.10
2022-07-28T09:55:35.362Z,20.70
2022-07-28T09:56:07.481Z,20.80
2022-07-28T09:56:41.264Z,20.80
2022-07-28T09:57:13.083Z,20.80
2022-07-28T09:57:46.730Z,18.20
2022-07-28T09:58:20.482Z,20.80
2022-07-28T09:58:59.202Z,20.80
2022-07-28T09:59:43.596Z,20.80
2022-07-28T10:00:31.443Z,20.90
2022-07-28T10:01:03.672Z,20.90
2022-07-28T10:01:53.997Z,20.90
2022-07-28T10:02:28.224Z,20.90
2022-07-28T10:03:02.265Z,20.90
2022-07-28T10:03:35.488Z,20.90
2022-07-28T10:04:07.560Z,20.90
2022-07-28T10:04:42.303Z,20.90
2022-07-28T10:05:14.157Z,23.60
2022-07-28T10:05:53.731Z,20.90
2022-07-28T10:06:30.844Z,21.00
2022-07-28T10:07:03.834Z,21.00
2022-07-28T10:07:51.046Z,23.10
2022-07-28T10:08:42.018Z,21.00
2022-07-28T10:09:14.395Z,21.00
2022-07-28T10:09:59.314Z,21.00
2022-07-28T10:10:31.088Z,21.00
2022-07-28T10:11:03.582Z,21.10
2022-07-28T10:11:41.076Z,21.10
2022-07-28T10:12:19.627Z,21.10
2022-07-28T10:13:04.034Z,21.10
2022-07-28T10:13:36.862Z,21.10
2022-07-28T10:14:08.691Z,21.10
2022-07-28T10:14:40.444Z,21.10
2022-07-28T10:15:33.613Z,21.20
2022-07-28T10:16:10.847Z,21.20
2022-07-28T10:16:44.437Z,21.20
2022-07-28T10:17:33.511Z,21.20
2022-07-28T10:18:06.159Z,21.20
2022-07-28T10:18:41.598Z,21.20
2022-07-28T10:19:13.392Z,21.20
2022-07-28T10:19:45.202Z,21.20
2022-07-28T10:20:17.019Z,21.30
2022-07-28T10:20:50.737Z,21.30
2022-07-28T13:42:17.106Z,24.60
2022-07-28T22:59:28.876Z,19.90
2022-07-28T23:45:45.018Z,19.20
2022-07-28T23:46:16.914Z,19.20
2022-07-28T23:46:48.881Z,19.10
2022-07-28T23:47:20.866Z,19.10
2022-07-28T23:47:58.561Z,19.00
2022-07-28T23:48:30.863Z,19.00
2022-07-28T23:49:02.816Z,19.20
2022-07-28T23:49:34.729Z,19.00
2022-07-28T23:50:07.288Z,18.90
2022-07-28T23:50:39.114Z,18.90
2022-07-28T23:51:11.025Z,18.90
2022-07-28T23:51:48.426Z,18.70
2022-07-28T23:52:20.627Z,18.90
2022-07-28T23:52:52.748Z,18.90
2022-07-28T23:53:24.903Z,18.80
2022-07-28T23:53:56.694Z,18.80
2022-07-28T23:54:28.451Z,18.80
2022-07-28T23:55:00.222Z,18.70
2022-07-28T23:55:32.033Z,18.80
2022-07-28T23:56:04.007Z,18.70
2022-07-28T23:56:35.807Z,18.70
2022-07-28T23:57:07.579Z,18.80
2022-07-28T23:57:39.387Z,18.70
2022-07-28T23:58:12.296Z,18.70
2022-07-28T23:58:44.170Z,18.70
2022-07-28T23:59:15.919Z,18.70
2022-07-28T23:59:47.767Z,18.70
